createdAt,value
2019-02-11T08:50:31.082Z,4.70
2019-02-11T08:53:01.715Z,5.33
2019-02-11T08:55:32.233Z,5.07
2019-02-11T08:58:02.807Z,4.97
2019-02-11T09:00:33.542Z,5.50
2019-02-11T09:03:04.352Z,4.87
2019-02-11T09:05:34.979Z,4.60
2019-02-11T09:08:05.539Z,4.60
2019-02-11T09:10:36.233Z,4.50
2019-02-11T09:13:06.808Z,5.33
2019-02-11T09:15:37.479Z,4.83
2019-02-11T09:18:08.109Z,5.30
2019-02-11T09:20:38.919Z,5.10
2019-02-11T09:23:09.471Z,4.50
2019-02-11T09:25:40.030Z,4.20
2019-02-11T09:28:10.730Z,3.30
2019-02-11T09:30:41.319Z,3.40
2019-02-11T09:33:12.035Z,4.23
2019-02-11T09:35:42.683Z,4.33
2019-02-11T09:38:13.368Z,4.00
2019-02-11T09:40:44.067Z,5.47
2019-02-11T09:43:14.682Z,4.33
2019-02-11T09:45:45.398Z,3.90
2019-02-11T09:48:16.159Z,4.63
2019-02-11T09:50:49.332Z,5.13
2019-02-11T09:53:20.489Z,4.83
2019-02-11T09:55:51.127Z,4.87
2019-02-11T09:58:21.749Z,3.33
2019-02-11T10:00:52.327Z,3.77
2019-02-11T10:03:22.931Z,3.83
2019-02-11T10:05:53.567Z,5.10
2019-02-11T10:08:24.202Z,3.90
2019-02-11T10:10:54.880Z,4.23
2019-02-11T10:13:25.443Z,4.20
2019-02-11T10:15:55.982Z,4.70
2019-02-11T10:18:26.695Z,4.97
2019-02-11T10:20:57.415Z,3.90
2019-02-11T10:23:27.994Z,4.57
2019-02-11T10:25:58.623Z,4.87
2019-02-11T10:28:29.582Z,5.43
2019-02-11T10:31:00.147Z,5.33
2019-02-11T10:33:30.713Z,4.30
2019-02-11T10:36:01.979Z,4.13
2019-02-11T10:38:36.517Z,4.03
2019-02-11T10:41:04.867Z,4.57
2019-02-11T10:43:35.527Z,4.80
2019-02-11T10:46:06.232Z,4.70
2019-02-11T10:48:36.895Z,4.60
2019-02-11T10:51:07.969Z,3.60
2019-02-11T10:53:38.784Z,4.37
2019-02-11T10:56:11.831Z,4.33
2019-02-11T10:58:42.578Z,4.70
2019-02-11T11:01:14.956Z,4.00
2019-02-11T11:03:45.689Z,2.80
2019-02-11T11:06:16.807Z,4.53
2019-02-11T11:08:47.508Z,4.27
2019-02-11T11:11:18.179Z,4.27
2019-02-11T11:13:48.825Z,4.30
2019-02-11T11:16:19.719Z,3.50
2019-02-11T11:18:50.404Z,3.80
2019-02-11T11:21:21.478Z,3.17
2019-02-11T11:23:52.015Z,3.50
2019-02-11T11:26:22.630Z,3.67
2019-02-11T11:28:54.155Z,4.80
2019-02-11T11:31:24.887Z,4.60
2019-02-11T11:33:55.455Z,3.33
2019-02-11T11:36:26.191Z,4.97
2019-02-11T11:38:56.783Z,3.13
2019-02-11T11:41:27.362Z,4.83
2019-02-11T11:43:58.529Z,3.30
2019-02-11T11:46:29.215Z,3.17
2019-02-11T11:49:00.485Z,3.47
2019-02-11T11:51:31.209Z,3.07
2019-02-11T11:54:01.994Z,4.67
2019-02-11T11:56:32.590Z,3.37
2019-02-11T11:59:03.345Z,4.00
2019-02-11T12:01:33.927Z,3.43
2019-02-11T12:04:06.666Z,3.70
2019-02-11T12:06:37.061Z,2.87
2019-02-11T12:09:07.741Z,4.47
2019-02-11T12:11:38.435Z,3.97
2019-02-11T12:14:09.171Z,3.50
2019-02-11T12:16:55.398Z,4.47
2019-02-11T12:19:12.248Z,2.90
2019-02-11T12:21:42.857Z,3.73
2019-02-11T12:24:13.803Z,4.47
2019-02-11T12:26:44.477Z,2.80
2019-02-11T12:29:15.187Z,4.77
2019-02-11T12:31:45.929Z,3.20
2019-02-11T12:34:16.497Z,3.23
2019-02-11T12:36:49.235Z,2.90
2019-02-11T12:39:19.794Z,3.20
2019-02-11T12:41:50.672Z,3.83
2019-02-11T12:44:21.301Z,3.20
2019-02-11T12:46:51.932Z,3.00
2019-02-11T12:49:22.481Z,2.80
2019-02-11T12:51:53.100Z,3.57
2019-02-11T12:54:24.224Z,3.10
2019-02-11T12:56:57.163Z,4.23
2019-02-11T12:59:27.715Z,3.50
2019-02-11T13:01:59.386Z,4.30
2019-02-11T13:04:30.240Z,3.00
2019-02-11T13:07:00.921Z,2.73
2019-02-11T13:09:31.607Z,2.80
2019-02-11T13:12:02.550Z,3.90
2019-02-11T13:14:33.132Z,3.70
2019-02-11T13:17:15.089Z,3.33
2019-02-11T13:19:36.024Z,2.57
2019-02-11T13:22:06.657Z,3.93
2019-02-11T13:24:37.277Z,3.80
2019-02-11T13:27:07.969Z,3.73
2019-02-11T13:29:38.572Z,4.07
2019-02-11T13:32:10.593Z,4.10
2019-02-11T13:34:41.512Z,4.10
2019-02-11T13:37:12.174Z,4.70
2019-02-11T13:39:42.893Z,3.70
2019-02-11T13:42:13.539Z,4.60
2019-02-11T13:44:44.141Z,4.40
2019-02-11T13:47:15.634Z,5.87
2019-02-11T13:49:48.828Z,3.13
2019-02-11T13:52:22.608Z,5.77
2019-02-11T13:54:53.319Z,5.00
2019-02-11T13:57:25.397Z,4.90
2019-02-11T13:59:55.991Z,4.80
2019-02-11T14:02:26.619Z,3.70
2019-02-11T14:07:34.775Z,4.10
2019-02-11T14:10:05.934Z,4.43
2019-02-11T14:12:36.902Z,6.07
2019-02-11T14:15:14.004Z,3.37
2019-02-11T14:17:50.129Z,5.10
2019-02-11T14:20:28.124Z,5.20
2019-02-11T14:23:03.006Z,4.92
2019-02-11T14:25:43.907Z,5.15
2019-02-11T14:28:06.850Z,5.00
2019-02-11T14:30:37.615Z,5.17
2019-02-11T14:33:08.350Z,5.58
2019-02-11T14:35:40.238Z,5.67
2019-02-11T14:38:10.817Z,5.90
2019-02-11T14:40:41.482Z,6.57
2019-02-11T14:43:12.073Z,6.25
2019-02-11T14:45:42.961Z,5.83
2019-02-11T14:48:26.583Z,5.60
2019-02-11T14:50:46.343Z,5.90
2019-02-11T14:53:18.719Z,5.10
2019-02-11T14:55:49.404Z,5.07
2019-02-11T14:58:20.126Z,5.30
2019-02-11T15:00:50.718Z,5.30
2019-02-11T15:03:21.564Z,5.58
2019-02-11T15:05:52.340Z,4.60
2019-02-11T15:08:22.928Z,6.62
2019-02-11T15:10:53.544Z,5.12
2019-02-11T15:13:25.253Z,4.95
2019-02-11T15:15:55.836Z,5.70
2019-02-11T15:18:34.155Z,5.78
2019-02-11T15:20:59.731Z,4.90
2019-02-11T15:23:30.275Z,5.10
2019-02-11T15:26:01.005Z,5.30
2019-02-11T15:28:31.841Z,5.37
2019-02-11T15:31:03.707Z,5.90
2019-02-11T15:33:34.296Z,5.30
2019-02-11T15:36:05.073Z,5.50
2019-02-11T15:38:35.896Z,5.33
2019-02-11T15:41:06.488Z,5.30
2019-02-11T15:43:37.317Z,4.90
2019-02-11T15:46:07.839Z,5.35
2019-02-11T15:48:43.049Z,5.37
2019-02-11T15:51:12.544Z,5.58
2019-02-11T15:53:43.167Z,5.08
2019-02-11T15:56:14.004Z,5.10
2019-02-11T15:58:44.571Z,6.50
2019-02-11T16:01:15.176Z,5.50
2019-02-11T16:03:45.749Z,5.67
2019-02-11T16:06:16.418Z,6.08
2019-02-11T16:08:47.086Z,5.20
2019-02-11T16:11:17.785Z,6.15
2019-02-11T16:13:48.435Z,5.05
2019-02-11T16:16:18.983Z,5.42
2019-02-11T16:18:51.800Z,4.53
2019-02-11T16:21:22.014Z,5.47
2019-02-11T16:23:52.635Z,4.53
2019-02-11T16:26:23.320Z,5.20
2019-02-11T16:28:53.883Z,4.70
2019-02-11T16:31:25.246Z,5.40
2019-02-11T16:33:56.147Z,4.47
2019-02-11T16:36:26.748Z,4.70
2019-02-11T16:38:57.547Z,4.33
2019-02-11T16:41:28.866Z,4.90
2019-02-11T16:43:59.431Z,4.67
2019-02-11T16:46:31.692Z,5.20
2019-02-11T16:49:02.316Z,4.87
2019-02-11T16:51:32.908Z,4.55
2019-02-11T16:54:05.648Z,5.12
2019-02-11T16:56:36.830Z,5.33
2019-02-11T16:59:07.525Z,5.10
2019-02-11T17:01:38.323Z,5.78
2019-02-11T17:04:11.007Z,5.00
2019-02-11T17:06:41.540Z,4.55
2019-02-11T17:49:39.268Z,3.30
2019-02-11T17:52:10.675Z,3.00
2019-02-11T17:54:44.561Z,3.63
2019-02-11T17:57:15.350Z,3.17
2019-02-11T17:59:49.185Z,3.50
2019-02-11T18:04:57.660Z,5.00
2019-02-11T18:07:30.397Z,3.58
2019-02-11T18:10:03.216Z,4.57
2019-02-11T18:12:38.213Z,4.58
2019-02-11T18:15:19.701Z,4.35
2019-02-11T18:18:03.491Z,5.10
2019-02-11T18:20:42.759Z,4.10
2019-02-11T18:23:17.696Z,4.22
2019-02-11T18:25:51.479Z,4.67
2019-02-11T18:28:27.062Z,5.08
2019-02-11T18:31:05.923Z,4.30
2019-02-11T18:33:38.843Z,4.08
2019-02-11T18:36:11.854Z,5.25
2019-02-11T18:39:07.832Z,3.63
2019-02-11T18:41:43.403Z,4.50
2019-02-11T18:44:44.323Z,4.27
2019-02-11T18:47:37.502Z,3.50
2019-02-11T18:50:14.899Z,3.62
2019-02-11T18:52:52.198Z,4.28
2019-02-11T18:55:42.916Z,4.00
2019-02-11T18:59:07.515Z,4.40
2019-02-11T19:02:01.729Z,3.65
2019-02-11T19:04:36.454Z,3.40
2019-02-11T19:07:18.743Z,3.72
2019-02-11T19:10:11.875Z,3.80
2019-02-11T19:16:20.115Z,4.10
2019-02-11T19:20:11.484Z,3.00
2019-02-11T19:23:08.181Z,3.50
2019-02-11T19:25:31.581Z,3.50
2019-02-11T19:28:08.382Z,3.92
2019-02-11T19:30:42.514Z,3.20
2019-02-11T19:33:24.731Z,3.10
2019-02-11T19:35:59.453Z,3.08
2019-02-11T19:38:32.089Z,3.00
2019-02-11T19:41:07.260Z,2.70
2019-02-11T19:44:10.206Z,3.75
2019-02-11T19:46:41.221Z,3.20
2019-02-11T19:49:14.739Z,3.10
2019-02-11T19:51:59.459Z,3.00
2019-02-11T19:54:36.483Z,3.27
2019-02-11T19:57:09.116Z,2.72
2019-02-11T19:59:43.934Z,2.83
2019-02-11T20:02:20.144Z,3.08
2019-02-11T20:04:58.953Z,3.47
2019-02-11T20:07:35.894Z,2.85
2019-02-11T20:10:17.035Z,2.20
2019-02-11T20:13:10.194Z,2.80
2019-02-11T20:15:54.451Z,4.00
2019-02-11T20:18:26.589Z,3.40
2019-02-11T20:21:02.284Z,3.15
2019-02-11T20:23:53.319Z,3.37
2019-02-11T20:26:21.386Z,2.60
2019-02-11T20:28:57.455Z,3.12
2019-02-11T20:31:32.709Z,2.80
2019-02-11T20:34:10.312Z,2.60
2019-02-11T20:36:54.163Z,3.23
2019-02-11T20:39:29.614Z,3.00
2019-02-11T20:42:02.142Z,3.47
2019-02-11T20:44:38.191Z,2.77
2019-02-11T20:47:09.628Z,2.95
2019-02-11T20:49:53.484Z,2.95
2019-02-11T20:52:26.883Z,2.58
2019-02-11T20:55:01.148Z,2.70
2019-02-11T20:57:33.121Z,2.80
2019-02-11T21:00:04.915Z,2.80
2019-02-11T21:02:37.910Z,2.50
2019-02-11T21:05:12.195Z,2.92
2019-02-11T21:07:51.521Z,2.77
2019-02-11T21:10:27.304Z,2.50
2019-02-11T21:13:00.527Z,3.50
2019-02-11T21:15:35.453Z,2.85
2019-02-11T21:18:06.960Z,2.83
2019-02-11T21:20:44.744Z,2.80
2019-02-11T21:23:22.499Z,3.17
2019-02-11T21:25:54.414Z,2.80
2019-02-11T21:28:30.108Z,2.90
2019-02-11T21:31:08.155Z,2.67
2019-02-11T21:33:43.139Z,3.40
2019-02-11T21:36:19.595Z,2.57
2019-02-11T21:41:28.566Z,2.30
2019-02-11T21:44:03.237Z,2.90
2019-02-11T21:46:36.661Z,2.00
2019-02-11T22:07:02.710Z,2.50
2019-02-11T22:09:33.258Z,2.10
2019-02-11T22:12:06.725Z,3.22
2019-02-11T22:14:44.519Z,3.10
2019-02-11T22:17:11.304Z,3.87
2019-02-11T22:19:42.063Z,2.60
2019-02-11T22:22:17.386Z,2.60
2019-02-11T22:24:51.870Z,3.20
2019-02-11T22:27:25.382Z,2.98
2019-02-11T22:29:57.632Z,2.55
2019-02-11T22:32:32.297Z,2.62
2019-02-11T22:35:07.816Z,2.60
2019-02-11T22:42:49.270Z,2.20
2019-02-11T22:45:27.104Z,2.50
2019-02-11T22:47:59.383Z,2.42
2019-02-11T22:50:32.414Z,3.02
2019-02-11T22:53:03.365Z,2.80
2019-02-11T22:55:33.935Z,2.67
2019-02-11T22:58:08.489Z,2.45
2019-02-11T23:00:53.730Z,2.20
2019-02-11T23:03:28.670Z,2.80
2019-02-11T23:18:37.947Z,2.80
2019-02-11T23:21:10.409Z,1.90
2019-02-11T23:23:43.460Z,2.10
2019-02-11T23:26:14.151Z,1.60
2019-02-11T23:28:44.837Z,2.10
2019-02-11T23:31:16.827Z,1.80
2019-02-11T23:33:47.429Z,1.70
2019-02-11T23:36:24.759Z,1.63
2019-02-11T23:38:58.555Z,2.30
2019-02-11T23:41:35.189Z,2.70
2019-02-11T23:44:07.292Z,2.12
2019-02-11T23:46:42.103Z,2.30
2019-02-11T23:49:14.385Z,2.20
2019-02-11T23:51:52.418Z,2.50
2019-02-11T23:54:27.470Z,2.60
2019-02-11T23:56:58.724Z,2.33
2019-02-11T23:59:37.939Z,2.10
